Time;durP1;ratioP1;P1;durP2;ratioP2;P2;SDS_P1;SDS_P2;PMS_P1;PMS_P2;Temp;Humidity;BMP_temperature;BMP_pressure;BME280_temperature;BME280_humidity;BME280_pressure;Samples;Min_cycle;Max_cycle;Signal;HPM_P1;HPM_P2
2024/03/06 00:01:41;;;;;;;13.63;5.83;;;;;;;8.25;100.00;96210.84;5038441;28;20205;-72
2024/03/06 00:04:08;;;;;;;13.50;6.53;;;;;;;8.25;100.00;96205.59;5036823;28;20225;-72
2024/03/06 00:06:34;;;;;;;11.83;6.00;;;;;;;8.33;100.00;96210.88;5037639;28;20201;-72
2024/03/06 00:09:03;;;;;;;12.43;6.13;;;;;;;8.41;100.00;96209.03;5039156;28;20643;-72
2024/03/06 00:11:29;;;;;;;12.57;6.27;;;;;;;8.25;100.00;96211.66;5037870;28;20209;-72
2024/03/06 00:13:56;;;;;;;13.83;5.37;;;;;;;8.29;100.00;96210.34;5037834;28;20217;-72
2024/03/06 00:16:22;;;;;;;13.80;6.03;;;;;;;8.26;100.00;96213.31;5038250;28;20526;-72
2024/03/06 00:18:49;;;;;;;13.93;6.23;;;;;;;8.34;100.00;96217.72;5038143;28;20718;-72
2024/03/06 00:21:16;;;;;;;13.93;6.33;;;;;;;8.30;100.00;96217.25;5037808;28;20204;-72
2024/03/06 00:23:42;;;;;;;17.20;7.43;;;;;;;8.28;100.00;96215.78;5037178;28;20221;-72
2024/03/06 00:26:11;;;;;;;14.13;6.70;;;;;;;8.46;100.00;96217.25;5037294;28;20205;-72
2024/03/06 00:28:37;;;;;;;15.40;6.80;;;;;;;8.16;100.00;96217.06;5038037;28;20197;-72
2024/03/06 00:31:05;;;;;;;17.10;7.03;;;;;;;8.16;100.00;96211.81;5037777;28;20202;-72
2024/03/06 00:33:32;;;;;;;19.17;7.53;;;;;;;8.12;100.00;96219.19;5037749;28;20719;-72
2024/03/06 00:35:58;;;;;;;11.47;5.37;;;;;;;8.24;100.00;96222.34;5036790;28;20655;-72
2024/03/06 00:38:25;;;;;;;17.37;6.70;;;;;;;8.23;100.00;96223.31;5037730;28;20225;-72
2024/03/06 00:40:51;;;;;;;19.47;7.27;;;;;;;8.05;100.00;96218.16;5037819;28;20202;-72
2024/03/06 00:43:20;;;;;;;13.47;6.30;;;;;;;8.29;100.00;96217.44;5037640;28;20734;-72
2024/03/06 00:45:46;;;;;;;13.87;6.60;;;;;;;8.05;100.00;96217.38;5036888;28;20201;-72
2024/03/06 00:48:13;;;;;;;12.63;5.77;;;;;;;7.97;100.00;96220.78;5037416;28;20587;-72
2024/03/06 00:50:39;;;;;;;14.47;6.03;;;;;;;7.97;100.00;96223.41;5037140;28;20197;-72
2024/03/06 00:53:07;;;;;;;12.00;5.43;;;;;;;8.19;100.00;96216.75;5037485;28;20221;-72
2024/03/06 00:55:33;;;;;;;15.77;7.17;;;;;;;8.12;100.00;96206.06;5036796;28;20224;-72
2024/03/06 00:58:00;;;;;;;16.13;6.63;;;;;;;8.16;100.00;96210.03;5037091;28;20236;-72
2024/03/06 01:00:28;;;;;;;15.33;6.87;;;;;;;8.27;100.00;96201.00;5037720;28;20295;-72
2024/03/06 01:02:55;;;;;;;18.63;7.70;;;;;;;8.14;100.00;96211.16;5036433;28;20617;-70
2024/03/06 01:05:22;;;;;;;15.33;6.47;;;;;;;8.16;100.00;96212.66;5036119;28;20205;-70
2024/03/06 01:07:48;;;;;;;13.93;6.80;;;;;;;8.09;100.00;96205.56;5036867;28;20197;-70
2024/03/06 01:10:15;;;;;;;19.83;6.57;;;;;;;7.76;100.00;96203.84;5037761;28;20205;-70
2024/03/06 01:12:44;;;;;;;16.23;7.80;;;;;;;7.90;100.00;96209.31;5037446;28;20208;-70
2024/03/06 01:15:10;;;;;;;17.53;7.83;;;;;;;7.99;100.00;96204.88;5036778;28;20296;-70
2024/03/06 01:17:38;;;;;;;14.20;7.00;;;;;;;8.20;100.00;96215.78;5036553;28;20225;-70
2024/03/06 01:20:06;;;;;;;16.57;6.77;;;;;;;8.22;100.00;96208.53;5036803;28;20220;-70
2024/03/06 01:22:33;;;;;;;16.97;6.63;;;;;;;8.03;100.00;96208.81;5036774;28;20213;-70
2024/03/06 01:25:00;;;;;;;18.77;7.43;;;;;;;7.97;100.00;96212.13;5036553;28;20205;-70
2024/03/06 01:27:26;;;;;;;15.03;7.33;;;;;;;8.10;100.00;96217.69;5036352;28;20197;-70
2024/03/06 01:29:53;;;;;;;19.10;7.27;;;;;;;8.09;100.00;96213.44;5036925;28;20706;-70
2024/03/06 01:32:19;;;;;;;18.83;7.63;;;;;;;8.08;100.00;96211.78;5036662;28;20379;-70
2024/03/06 01:34:47;;;;;;;14.10;7.03;;;;;;;8.26;100.00;96210.69;5036342;28;20229;-70
2024/03/06 01:37:14;;;;;;;18.00;7.27;;;;;;;8.06;100.00;96201.44;5036471;28;20205;-72
2024/03/06 01:39:40;;;;;;;19.10;6.97;;;;;;;8.04;100.00;96208.69;5035903;28;20393;-72
2024/03/06 01:42:07;;;;;;;17.33;7.37;;;;;;;8.03;100.00;96214.06;5036145;28;20205;-72
2024/03/06 01:44:33;;;;;;;16.50;7.23;;;;;;;8.09;100.00;96213.44;5035478;28;20910;-72
2024/03/06 01:47:00;;;;;;;18.77;7.93;;;;;;;8.08;100.00;96210.00;5036190;28;20216;-70
2024/03/06 01:49:28;;;;;;;13.60;6.27;;;;;;;8.29;100.00;96209.56;5035880;28;20197;-70
2024/03/06 01:51:59;;;;;;;16.63;6.77;;;;;;;8.08;100.00;96207.38;5036515;28;20672;-70
2024/03/06 01:54:27;;;;;;;13.07;6.83;;;;;;;8.19;100.00;96206.25;5035595;28;20316;-70
2024/03/06 01:56:55;;;;;;;18.00;6.80;;;;;;;8.04;100.00;96210.47;5035971;28;20205;-70
2024/03/06 01:59:25;;;;;;;18.43;7.23;;;;;;;8.10;100.00;96212.44;5036186;28;20239;-70
2024/03/06 02:01:54;;;;;;;14.00;6.53;;;;;;;8.21;100.00;96214.78;5037025;28;20271;-70
2024/03/06 02:04:21;;;;;;;14.40;7.20;;;;;;;7.98;100.00;96200.59;5034783;28;20232;-70
2024/03/06 02:06:48;;;;;;;15.57;7.37;;;;;;;8.01;100.00;96208.19;5036255;28;20205;-70
2024/03/06 02:09:16;;;;;;;16.60;6.83;;;;;;;8.20;100.00;96203.47;5035977;28;20200;-70
2024/03/06 02:11:43;;;;;;;19.03;7.27;;;;;;;8.08;100.00;96209.16;5036126;28;20292;-70
2024/03/06 02:14:10;;;;;;;19.40;6.73;;;;;;;8.09;100.00;96208.19;5034803;28;20225;-70
2024/03/06 02:16:38;;;;;;;17.13;6.87;;;;;;;8.00;100.00;96203.91;5036275;28;20426;-70
2024/03/06 02:19:05;;;;;;;17.87;7.13;;;;;;;7.98;100.00;96205.84;5035294;28;20221;-70
2024/03/06 02:21:33;;;;;;;16.87;7.00;;;;;;;8.18;100.00;96205.41;5036261;28;20205;-70
2024/03/06 02:23:59;;;;;;;12.67;6.17;;;;;;;7.98;100.00;96208.47;5035276;28;20221;-70
2024/03/06 02:26:26;;;;;;;16.10;6.90;;;;;;;7.98;100.00;96213.72;5035689;28;20743;-70
2024/03/06 02:28:54;;;;;;;13.93;6.73;;;;;;;8.11;100.00;96204.41;5035798;28;20197;-70
2024/03/06 02:31:22;;;;;;;15.17;6.97;;;;;;;8.07;100.00;96202.25;5036017;28;20611;-70
2024/03/06 02:33:50;;;;;;;16.33;6.90;;;;;;;8.10;100.00;96204.59;5035874;28;20220;-70
2024/03/06 02:36:17;;;;;;;14.83;6.63;;;;;;;8.04;100.00;96205.22;5035287;28;20204;-70
2024/03/06 02:38:45;;;;;;;19.33;7.17;;;;;;;8.13;100.00;96204.25;5035534;28;20224;-70
2024/03/06 02:41:13;;;;;;;16.27;6.53;;;;;;;7.89;100.00;96204.19;5035974;28;20201;-70
2024/03/06 02:43:40;;;;;;;15.00;5.83;;;;;;;7.96;100.00;96205.22;5035074;28;20225;-70
2024/03/06 02:46:06;;;;;;;14.53;7.27;;;;;;;7.97;100.00;96196.38;5035603;28;20197;-70
2024/03/06 02:48:33;;;;;;;16.83;6.53;;;;;;;7.96;100.00;96202.59;5035667;28;20698;-70
2024/03/06 02:51:00;;;;;;;14.03;6.53;;;;;;;7.96;100.00;96203.41;5035095;28;20413;-70
2024/03/06 02:53:27;;;;;;;12.57;5.67;;;;;;;7.95;100.00;96204.38;5035013;28;20224;-70
2024/03/06 02:55:55;;;;;;;14.37;6.00;;;;;;;8.02;100.00;96210.63;5034427;28;20452;-70
2024/03/06 02:58:22;;;;;;;14.27;6.73;;;;;;;7.81;100.00;96204.19;5035486;28;20225;-70
2024/03/06 03:00:48;;;;;;;15.13;6.70;;;;;;;7.57;100.00;96204.13;5034737;28;20288;-70
2024/03/06 03:03:15;;;;;;;15.53;7.17;;;;;;;7.68;100.00;96208.28;5035101;28;20233;-70
2024/03/06 03:05:41;;;;;;;18.07;7.93;;;;;;;7.83;100.00;96204.88;5034620;28;20659;-73
2024/03/06 03:08:08;;;;;;;20.00;6.30;;;;;;;7.88;100.00;96207.84;5035620;28;20463;-73
2024/03/06 03:10:34;;;;;;;15.47;7.40;;;;;;;7.94;100.00;96201.91;5034847;28;20205;-73
2024/03/06 03:13:04;;;;;;;15.27;7.00;;;;;;;8.10;100.00;96196.72;5034975;28;20286;-73
2024/03/06 03:15:31;;;;;;;16.30;7.17;;;;;;;7.88;100.00;96206.00;5034636;28;20661;-73
2024/03/06 03:17:57;;;;;;;14.97;6.90;;;;;;;7.94;100.00;96207.16;5034617;28;20225;-73
2024/03/06 03:20:24;;;;;;;17.10;6.40;;;;;;;7.91;100.00;96202.25;5034545;28;20212;-72
2024/03/06 03:22:50;;;;;;;16.23;6.97;;;;;;;7.76;100.00;96201.22;5034843;28;20209;-72
2024/03/06 03:25:17;;;;;;;18.17;7.23;;;;;;;7.61;100.00;96202.00;5032143;28;20201;-73
2024/03/06 03:27:44;;;;;;;15.77;7.07;;;;;;;7.67;100.00;96199.56;5034957;28;20581;-72
2024/03/06 03:30:12;;;;;;;14.43;6.80;;;;;;;7.59;100.00;96201.38;5034958;28;20260;-73
2024/03/06 03:32:39;;;;;;;16.83;7.33;;;;;;;7.60;100.00;96203.00;5034398;28;20212;-70
2024/03/06 03:35:07;;;;;;;14.83;6.90;;;;;;;7.66;100.00;96203.19;5034827;28;20197;-70
2024/03/06 03:37:33;;;;;;;15.37;6.70;;;;;;;7.67;100.00;96204.00;5035394;28;20212;-70
2024/03/06 03:40:00;;;;;;;15.03;6.90;;;;;;;7.59;100.00;96204.00;5034311;28;20473;-70
2024/03/06 03:42:26;;;;;;;14.90;6.47;;;;;;;7.59;100.00;96202.19;5035045;28;20213;-70
2024/03/06 03:44:53;;;;;;;14.47;7.27;;;;;;;7.60;100.00;96206.44;5034686;28;20270;-70
2024/03/06 03:47:21;;;;;;;14.13;7.10;;;;;;;7.86;100.00;96208.97;5034960;28;20223;-70
2024/03/06 03:49:47;;;;;;;16.13;6.40;;;;;;;7.78;100.00;96207.16;5034645;28;20224;-70
2024/03/06 03:52:15;;;;;;;14.37;6.97;;;;;;;7.78;100.00;96206.31;5034387;28;20213;-70
2024/03/06 03:54:41;;;;;;;16.67;7.03;;;;;;;7.71;100.00;96210.56;5034362;28;20342;-70
2024/03/06 03:57:09;;;;;;;22.57;7.93;;;;;;;7.72;100.00;96206.97;5033824;28;20482;-70
2024/03/06 03:59:37;;;;;;;14.60;7.23;;;;;;;7.70;100.00;96207.13;5034760;28;20225;-70
2024/03/06 04:02:04;;;;;;;12.33;5.93;;;;;;;7.40;100.00;96212.13;5035886;28;20287;-70
2024/03/06 04:04:33;;;;;;;20.07;7.37;;;;;;;7.54;100.00;96209.69;5037157;28;20233;-70
2024/03/06 04:07:01;;;;;;;14.97;7.20;;;;;;;7.25;100.00;96207.63;5037441;28;20243;-70
2024/03/06 04:09:28;;;;;;;13.53;6.10;;;;;;;7.31;100.00;96213.88;5038537;28;20558;-72
2024/03/06 04:11:54;;;;;;;14.60;6.27;;;;;;;7.49;100.00;96205.91;5038643;28;20205;-73
2024/03/06 04:14:21;;;;;;;16.13;6.73;;;;;;;7.44;100.00;96214.25;5037860;28;20256;-73
2024/03/06 04:16:48;;;;;;;16.10;7.13;;;;;;;7.43;100.00;96211.78;5038691;28;20198;-73
2024/03/06 04:19:14;;;;;;;13.80;6.10;;;;;;;7.41;100.00;96209.34;5038624;28;20217;-73
2024/03/06 04:21:43;;;;;;;13.07;6.17;;;;;;;7.43;100.00;96211.78;5038072;28;20606;-73
2024/03/06 04:24:10;;;;;;;13.73;5.90;;;;;;;7.06;100.00;96213.09;5036900;28;20247;-73
2024/03/06 04:26:36;;;;;;;16.37;6.40;;;;;;;7.08;100.00;96213.78;5038242;28;20215;-73
2024/03/06 04:29:03;;;;;;;12.87;5.73;;;;;;;7.00;100.00;96214.56;5038032;28;20204;-72
2024/03/06 04:31:30;;;;;;;13.33;6.13;;;;;;;7.26;100.00;96219.78;5038056;28;20209;-73
2024/03/06 04:33:56;;;;;;;14.13;6.33;;;;;;;7.31;100.00;96218.31;5036991;28;20221;-73
2024/03/06 04:36:23;;;;;;;12.40;5.53;;;;;;;7.04;100.00;96217.66;5038405;28;20549;-72
2024/03/06 04:38:51;;;;;;;14.80;6.63;;;;;;;7.41;100.00;96219.81;5037103;28;20232;-73
2024/03/06 04:41:19;;;;;;;13.53;5.90;;;;;;;7.39;100.00;96216.53;5037891;28;20201;-71
2024/03/06 04:43:46;;;;;;;13.63;5.93;;;;;;;7.17;100.00;96216.28;5036821;28;20232;-71
2024/03/06 04:46:13;;;;;;;15.17;5.30;;;;;;;7.19;100.00;96222.16;5037504;28;20198;-71
2024/03/06 04:48:40;;;;;;;10.37;5.13;;;;;;;6.96;100.00;96217.63;5038599;28;20209;-70
2024/03/06 04:51:06;;;;;;;15.07;6.23;;;;;;;6.97;100.00;96219.28;5037649;28;20590;-71
2024/03/06 04:53:33;;;;;;;14.93;5.90;;;;;;;7.17;100.00;96225.94;5036611;28;20236;-70
2024/03/06 04:56:01;;;;;;;12.47;5.30;;;;;;;7.18;100.00;96227.56;5036758;28;20197;-71
2024/03/06 04:58:27;;;;;;;12.23;5.63;;;;;;;7.25;100.00;96224.16;5038645;28;20232;-71
2024/03/06 05:00:54;;;;;;;13.70;6.30;;;;;;;7.35;100.00;96236.16;5037315;28;20641;-71
2024/03/06 05:03:21;;;;;;;12.07;5.90;;;;;;;7.21;100.00;96237.75;5037387;28;20715;-71
2024/03/06 05:05:48;;;;;;;16.67;6.80;;;;;;;7.22;100.00;96239.38;5036068;28;20207;-71
2024/03/06 05:08:15;;;;;;;17.00;6.13;;;;;;;7.26;100.00;96243.34;5037544;28;20197;-71
2024/03/06 05:10:41;;;;;;;13.43;6.03;;;;;;;7.25;100.00;96250.38;5037110;28;20377;-71
2024/03/06 05:13:09;;;;;;;11.30;5.40;;;;;;;7.42;100.00;96246.84;5037221;28;20676;-71
2024/03/06 05:15:36;;;;;;;10.43;5.03;;;;;;;7.02;100.00;96248.47;5036359;28;20229;-71
2024/03/06 05:18:02;;;;;;;16.00;6.33;;;;;;;7.02;100.00;96243.22;5036982;28;20692;-70
2024/03/06 05:20:30;;;;;;;16.43;6.20;;;;;;;7.11;100.00;96244.91;5037362;28;20231;-70
2024/03/06 05:22:57;;;;;;;15.77;6.70;;;;;;;7.16;100.00;96242.63;5037194;28;20224;-70
2024/03/06 05:25:24;;;;;;;13.17;5.73;;;;;;;6.98;100.00;96249.75;5036314;28;20872;-70
2024/03/06 05:27:51;;;;;;;10.87;4.33;;;;;;;6.73;100.00;96253.16;5037300;28;20284;-70
2024/03/06 05:30:19;;;;;;;17.40;5.80;;;;;;;6.81;100.00;96250.59;5037361;28;20644;-72
2024/03/06 05:32:46;;;;;;;13.23;5.70;;;;;;;6.74;100.00;96252.19;5037196;28;20939;-72
2024/03/06 05:35:13;;;;;;;14.97;5.70;;;;;;;6.99;100.00;96265.31;5035794;28;20315;-72
2024/03/06 05:37:39;;;;;;;14.80;6.13;;;;;;;7.05;100.00;96259.44;5037346;28;20212;-71
2024/03/06 05:40:09;;;;;;;21.10;5.77;;;;;;;7.13;100.00;96258.66;5036828;28;20217;-71
2024/03/06 05:42:35;;;;;;;12.97;5.83;;;;;;;7.13;100.00;96256.03;5036931;28;20205;-71
2024/03/06 05:45:04;;;;;;;16.97;5.83;;;;;;;7.25;100.00;96262.66;5035515;28;20686;-71
2024/03/06 05:47:33;;;;;;;11.47;4.83;;;;;;;7.42;100.00;96263.41;5036930;28;20208;-71
2024/03/06 05:50:00;;;;;;;15.20;5.33;;;;;;;7.55;100.00;96273.47;5035355;28;20197;-71
2024/03/06 05:52:27;;;;;;;11.57;4.60;;;;;;;7.25;100.00;96267.91;5037172;28;20207;-70
2024/03/06 05:54:53;;;;;;;11.30;5.17;;;;;;;7.36;100.00;96274.50;5035767;28;20224;-71
2024/03/06 05:57:20;;;;;;;14.67;5.63;;;;;;;7.36;100.00;96271.09;5036366;28;20580;-71
2024/03/06 05:59:46;;;;;;;13.83;6.10;;;;;;;7.44;100.00;96277.16;5036438;28;20251;-71
2024/03/06 06:02:13;;;;;;;11.47;5.37;;;;;;;7.46;100.00;96277.84;5037209;28;20207;-70
2024/03/06 06:04:41;;;;;;;14.80;5.33;;;;;;;7.60;100.00;96276.41;5035038;28;20232;-72
2024/03/06 06:07:07;;;;;;;11.03;5.23;;;;;;;7.58;100.00;96283.63;5035203;28;20463;-71
2024/03/06 06:09:34;;;;;;;13.40;5.43;;;;;;;7.36;100.00;96290.25;5037210;28;20205;-71
2024/03/06 06:12:02;;;;;;;11.60;4.77;;;;;;;7.63;100.00;96292.66;5036724;28;20340;-71
2024/03/06 06:14:29;;;;;;;14.43;4.97;;;;;;;7.63;100.00;96284.78;5035377;28;20217;-71
2024/03/06 06:16:57;;;;;;;12.27;5.13;;;;;;;7.66;100.00;96292.34;5035685;28;20205;-70
2024/03/06 06:19:23;;;;;;;15.17;5.60;;;;;;;7.47;100.00;96289.13;5036729;28;21030;-71
2024/03/06 06:21:53;;;;;;;11.67;5.60;;;;;;;7.59;100.00;96293.16;5037035;28;20706;-72
2024/03/06 06:24:19;;;;;;;18.33;5.97;;;;;;;7.12;100.00;96296.34;5035011;28;20212;-70
2024/03/06 06:26:46;;;;;;;14.63;6.20;;;;;;;7.16;100.00;96305.53;5036038;28;20209;-72
2024/03/06 06:29:13;;;;;;;13.20;5.50;;;;;;;7.15;100.00;96301.25;5036957;28;20206;-70
2024/03/06 06:31:40;;;;;;;14.17;6.60;;;;;;;7.26;100.00;96300.00;5035659;28;20205;-71
2024/03/06 06:34:06;;;;;;;14.27;5.17;;;;;;;7.25;100.00;96291.50;5035766;28;20279;-71
2024/03/06 06:36:33;;;;;;;13.37;6.23;;;;;;;7.36;100.00;96305.16;5036280;28;20213;-70
2024/03/06 06:39:01;;;;;;;16.67;6.30;;;;;;;7.51;100.00;96300.94;5035681;28;20203;-72
2024/03/06 06:41:27;;;;;;;12.50;5.67;;;;;;;7.42;100.00;96300.09;5036231;28;20204;-71
2024/03/06 06:43:54;;;;;;;16.97;5.77;;;;;;;7.38;100.00;96295.31;5035156;28;20711;-70
2024/03/06 06:46:21;;;;;;;13.10;5.40;;;;;;;7.47;100.00;96297.84;5036406;28;20574;-70
2024/03/06 06:48:48;;;;;;;13.70;5.87;;;;;;;7.30;100.00;96301.34;5035999;28;20205;-71
2024/03/06 06:51:15;;;;;;;13.83;5.53;;;;;;;7.36;100.00;96299.91;5035631;28;20259;-71
2024/03/06 06:53:42;;;;;;;13.87;6.13;;;;;;;7.41;100.00;96298.47;5035149;28;20236;-72
2024/03/06 06:56:10;;;;;;;11.30;5.67;;;;;;;7.54;100.00;96298.84;5035925;28;20223;-71
2024/03/06 06:58:37;;;;;;;15.60;6.17;;;;;;;7.31;100.00;96302.19;5035803;28;20212;-70
2024/03/06 07:01:04;;;;;;;14.83;6.17;;;;;;;7.34;100.00;96300.06;5035303;28;20232;-71
2024/03/06 07:03:31;;;;;;;13.63;5.73;;;;;;;7.29;100.00;96304.97;5035899;28;20274;-73
2024/03/06 07:05:57;;;;;;;14.40;5.27;;;;;;;7.33;100.00;96308.06;5034840;28;20211;-70
2024/03/06 07:08:24;;;;;;;14.83;6.80;;;;;;;7.38;100.00;96309.25;5036622;28;20215;-70
2024/03/06 07:10:53;;;;;;;15.57;6.07;;;;;;;7.16;100.00;96311.56;5035812;28;20224;-70
2024/03/06 07:13:21;;;;;;;14.50;5.73;;;;;;;7.52;100.00;96310.47;5035377;28;21077;-72
2024/03/06 07:15:48;;;;;;;15.80;6.67;;;;;;;7.58;100.00;96312.47;5035854;28;20220;-72
2024/03/06 07:18:14;;;;;;;16.07;5.70;;;;;;;6.95;100.00;96313.75;5036144;28;20208;-71
2024/03/06 07:20:41;;;;;;;13.13;5.37;;;;;;;7.08;100.00;96313.34;5035571;28;20228;-70
2024/03/06 07:23:08;;;;;;;12.53;5.33;;;;;;;7.15;100.00;96312.53;5035201;28;20228;-72
2024/03/06 07:25:34;;;;;;;16.40;5.27;;;;;;;7.17;100.00;96315.84;5035707;28;20214;-69
2024/03/06 07:28:01;;;;;;;15.03;6.80;;;;;;;7.18;100.00;96317.50;5035036;28;20205;-70
2024/03/06 07:30:29;;;;;;;15.07;5.03;;;;;;;7.45;100.00;96318.13;5036279;28;20203;-71
2024/03/06 07:32:57;;;;;;;15.17;5.33;;;;;;;7.35;100.00;96324.47;5035709;28;20228;-70
2024/03/06 07:35:24;;;;;;;15.27;6.00;;;;;;;7.23;100.00;96330.13;5035346;28;20279;-70
2024/03/06 07:37:50;;;;;;;15.60;5.80;;;;;;;7.33;100.00;96336.91;5038506;28;20200;-70
2024/03/06 07:40:17;;;;;;;17.33;6.27;;;;;;;7.26;100.00;96329.84;5039676;28;20730;-70
2024/03/06 07:42:43;;;;;;;12.37;5.67;;;;;;;7.55;100.00;96331.16;5039334;28;20562;-71
2024/03/06 07:45:11;;;;;;;14.47;6.23;;;;;;;7.61;100.00;96335.75;5038165;28;20879;-71
2024/03/06 07:47:39;;;;;;;12.73;5.53;;;;;;;7.77;100.00;96335.84;5040245;28;20275;-71
2024/03/06 07:50:07;;;;;;;14.93;5.57;;;;;;;7.71;100.00;96339.06;5038605;28;20193;-71
2024/03/06 07:52:34;;;;;;;12.20;5.97;;;;;;;7.31;100.00;96349.34;5039180;28;20259;-71
2024/03/06 07:55:02;;;;;;;13.43;5.37;;;;;;;7.29;100.00;96341.66;5037571;28;20556;-71
2024/03/06 07:57:29;;;;;;;15.77;5.90;;;;;;;7.40;100.00;96354.47;5039616;28;20201;-71
2024/03/06 07:59:55;;;;;;;21.43;6.10;;;;;;;7.47;100.00;96358.16;5038160;28;20282;-71
2024/03/06 08:02:22;;;;;;;13.37;5.10;;;;;;;7.38;100.00;96355.59;5039153;28;20213;-71
2024/03/06 08:04:51;;;;;;;15.17;6.17;;;;;;;7.50;100.00;96355.19;5038053;28;20563;-71
2024/03/06 08:07:17;;;;;;;15.83;5.70;;;;;;;7.41;100.00;96357.94;5038908;28;20633;-71
2024/03/06 08:09:44;;;;;;;11.63;4.93;;;;;;;7.55;100.00;96357.38;5037953;28;20289;-71
2024/03/06 08:12:10;;;;;;;13.00;5.90;;;;;;;7.33;100.00;96355.25;5039095;28;20224;-71
2024/03/06 08:14:37;;;;;;;14.63;6.13;;;;;;;7.45;100.00;96357.47;5038012;28;20232;-72
2024/03/06 08:17:04;;;;;;;16.83;6.50;;;;;;;7.34;100.00;96360.38;5038529;28;20679;-71
2024/03/06 08:19:30;;;;;;;15.70;6.13;;;;;;;7.39;100.00;96362.50;5038096;28;20212;-71
2024/03/06 08:21:58;;;;;;;12.87;5.47;;;;;;;7.36;100.00;96361.00;5038941;28;20209;-71
2024/03/06 08:24:25;;;;;;;9.30;4.77;;;;;;;7.78;100.00;96363.69;5036992;28;20225;-72
2024/03/06 08:26:51;;;;;;;16.27;5.37;;;;;;;8.08;100.00;96359.56;5038413;28;20259;-71
2024/03/06 08:29:18;;;;;;;14.87;5.37;;;;;;;7.70;100.00;96364.50;5037558;28;20608;-71
2024/03/06 08:31:44;;;;;;;14.60;5.57;;;;;;;7.69;100.00;96369.88;5037987;28;20723;-71
2024/03/06 08:34:11;;;;;;;13.07;5.03;;;;;;;7.81;100.00;96368.63;5037298;28;20744;-71
2024/03/06 08:36:37;;;;;;;11.80;5.00;;;;;;;7.79;100.00;96374.06;5036507;28;20205;-71
2024/03/06 08:39:06;;;;;;;11.60;5.13;;;;;;;7.62;100.00;96369.69;5037542;28;20205;-71
2024/03/06 08:41:33;;;;;;;14.77;5.73;;;;;;;7.35;100.00;96372.47;5037631;28;20959;-71
2024/03/06 08:43:59;;;;;;;11.80;4.70;;;;;;;7.34;100.00;96381.31;5036903;28;20232;-71
2024/03/06 08:46:26;;;;;;;12.73;5.27;;;;;;;7.63;100.00;96381.81;5037737;28;20207;-71
2024/03/06 08:48:52;;;;;;;10.23;4.27;;;;;;;7.49;100.00;96379.75;5037777;28;20219;-71
2024/03/06 08:51:21;;;;;;;10.80;4.63;;;;;;;7.56;100.00;96383.44;5037038;28;20515;-71
2024/03/06 08:53:48;;;;;;;11.80;4.70;;;;;;;7.68;100.00;96378.75;5037347;28;20658;-71
2024/03/06 08:56:16;;;;;;;13.97;4.83;;;;;;;7.73;100.00;96387.78;5036667;28;20968;-71
2024/03/06 08:58:42;;;;;;;12.33;4.63;;;;;;;7.87;100.00;96389.81;5037608;28;20829;-71
2024/03/06 09:01:09;;;;;;;10.20;4.77;;;;;;;7.73;100.00;96392.22;5036256;28;20221;-71
2024/03/06 09:03:35;;;;;;;11.00;4.67;;;;;;;7.82;100.00;96396.53;5037237;28;20237;-71
2024/03/06 09:06:02;;;;;;;11.43;4.53;;;;;;;7.88;100.00;96397.53;5035648;28;20232;-71
2024/03/06 09:08:29;;;;;;;11.43;5.33;;;;;;;7.84;100.00;96405.03;5038045;28;20206;-71
2024/03/06 09:10:58;;;;;;;10.67;4.30;;;;;;;7.76;100.00;96405.00;5036257;28;20201;-71
2024/03/06 09:13:26;;;;;;;10.83;4.57;;;;;;;8.22;100.00;96402.78;5037470;28;20729;-71
2024/03/06 09:15:53;;;;;;;10.27;4.33;;;;;;;8.20;100.00;96408.19;5036902;28;20212;-72
2024/03/06 09:18:19;;;;;;;13.50;4.70;;;;;;;8.22;100.00;96405.41;5037671;28;20197;-71
2024/03/06 09:20:47;;;;;;;10.57;3.70;;;;;;;8.49;100.00;96406.81;5037210;28;20221;-71
2024/03/06 09:23:15;;;;;;;10.43;4.47;;;;;;;8.05;100.00;96411.56;5036991;28;20236;-72
2024/03/06 09:25:42;;;;;;;10.10;3.83;;;;;;;8.18;100.00;96411.97;5037430;28;20291;-71
2024/03/06 09:28:10;;;;;;;11.63;4.30;;;;;;;7.98;100.00;96418.38;5037739;28;20231;-72
2024/03/06 09:30:38;;;;;;;12.43;4.23;;;;;;;8.03;100.00;96416.13;5037213;28;20212;-72
2024/03/06 09:33:05;;;;;;;8.40;4.00;;;;;;;8.04;100.00;96418.63;5037236;28;20223;-72
2024/03/06 09:35:32;;;;;;;11.63;5.10;;;;;;;8.24;100.00;96419.22;5037180;28;20209;-72
2024/03/06 09:38:00;;;;;;;11.63;4.47;;;;;;;7.92;100.00;96425.09;5037134;28;20205;-71
2024/03/06 09:40:28;;;;;;;10.40;4.63;;;;;;;7.88;100.00;96428.19;5036876;28;20337;-71
2024/03/06 09:42:55;;;;;;;12.20;5.00;;;;;;;7.80;100.00;96425.50;5037077;28;20296;-72
2024/03/06 09:45:23;;;;;;;12.60;4.70;;;;;;;7.93;100.00;96436.44;5036955;28;20205;-71
2024/03/06 09:47:51;;;;;;;14.53;4.83;;;;;;;8.09;100.00;96426.00;5036522;28;20205;-71
2024/03/06 09:50:22;;;;;;;11.90;5.47;;;;;;;7.78;100.00;96427.47;5037209;28;20570;-72
2024/03/06 09:52:51;;;;;;;10.90;4.87;;;;;;;7.99;100.00;96427.91;5036742;28;20205;-72
2024/03/06 09:55:18;;;;;;;14.53;4.93;;;;;;;7.99;100.00;96425.28;5036676;28;20233;-72
2024/03/06 09:57:45;;;;;;;11.13;5.00;;;;;;;7.93;100.00;96429.38;5037115;28;20201;-71
2024/03/06 10:00:13;;;;;;;14.57;5.67;;;;;;;8.05;100.00;96432.53;5035484;28;20225;-71
2024/03/06 10:02:42;;;;;;;11.10;4.97;;;;;;;8.16;100.00;96429.66;5036538;28;20936;-70
2024/03/06 10:05:22;;;;;;;10.77;4.60;;;;;;;8.43;100.00;96422.41;5035845;28;20197;-71
2024/03/06 10:07:49;;;;;;;10.63;4.73;;;;;;;8.49;100.00;96425.19;5036723;28;20205;-71
2024/03/06 10:10:16;;;;;;;13.47;4.83;;;;;;;8.44;100.00;96424.03;5036571;28;20686;-71
2024/03/06 10:12:43;;;;;;;18.03;5.13;;;;;;;8.53;100.00;96420.47;5036493;28;20865;-71
2024/03/06 10:15:12;;;;;;;15.20;5.57;;;;;;;8.54;100.00;96428.16;5036027;28;20197;-71
2024/03/06 10:17:39;;;;;;;10.60;4.40;;;;;;;8.78;100.00;96419.50;5036764;28;20773;-71
2024/03/06 10:20:19;;;;;;;13.50;4.13;;;;;;;8.74;100.00;96428.72;5035921;28;20710;-71
2024/03/06 10:22:49;;;;;;;13.90;5.67;;;;;;;8.80;100.00;96436.75;5036028;28;20201;-71
2024/03/06 10:25:16;;;;;;;7.73;3.97;;;;;;;8.93;100.00;96428.41;5036058;28;20205;-71
2024/03/06 10:27:42;;;;;;;10.47;4.57;;;;;;;8.93;100.00;96423.97;5036523;28;20295;-71
2024/03/06 10:30:12;;;;;;;12.00;4.23;;;;;;;8.61;100.00;96434.41;5036094;28;20202;-71
2024/03/06 10:32:39;;;;;;;11.73;4.47;;;;;;;8.79;100.00;96435.13;5036303;28;20215;-71
2024/03/06 10:35:07;;;;;;;11.70;4.60;;;;;;;8.46;100.00;96434.38;5034904;28;20238;-71
2024/03/06 10:37:34;;;;;;;10.93;4.40;;;;;;;8.36;100.00;96436.31;5036602;28;20205;-71
2024/03/06 10:40:05;;;;;;;9.00;4.20;;;;;;;8.32;100.00;96432.38;5036194;28;20205;-71
2024/03/06 10:42:34;;;;;;;9.43;4.23;;;;;;;8.31;100.00;96438.59;5034551;28;20255;-70
2024/03/06 10:45:02;;;;;;;13.50;4.93;;;;;;;8.43;100.00;96437.34;5033819;28;20220;-70
2024/03/06 10:47:29;;;;;;;15.40;6.07;;;;;;;8.65;100.00;96435.72;5035445;28;20770;-71
2024/03/06 10:50:00;;;;;;;11.67;4.73;;;;;;;8.97;100.00;96429.72;5034469;28;20204;-71
2024/03/06 10:52:29;;;;;;;13.77;4.87;;;;;;;8.97;100.00;96429.72;5035343;28;21228;-71
2024/03/06 10:54:58;;;;;;;11.90;5.33;;;;;;;8.86;100.00;96438.75;5033742;28;20235;-71
2024/03/06 10:57:25;;;;;;;14.17;5.37;;;;;;;9.19;100.00;96435.19;5035646;28;20299;-71
2024/03/06 10:59:53;;;;;;;15.13;5.73;;;;;;;9.09;100.00;96431.88;5034218;28;20205;-71
2024/03/06 11:02:21;;;;;;;15.67;5.50;;;;;;;9.00;100.00;96432.03;5035482;28;20224;-70
2024/03/06 11:04:48;;;;;;;16.30;6.67;;;;;;;9.12;100.00;96431.56;5034228;28;20236;-71
2024/03/06 11:07:15;;;;;;;18.97;6.10;;;;;;;8.80;100.00;96436.75;5035268;28;20201;-71
2024/03/06 11:09:42;;;;;;;21.50;6.03;;;;;;;8.90;100.00;96429.56;5035866;28;20212;-71
2024/03/06 11:12:09;;;;;;;16.77;5.80;;;;;;;8.77;100.00;96439.72;5041346;28;20223;-71
2024/03/06 11:14:40;;;;;;;13.77;5.20;;;;;;;8.85;100.00;96436.28;5041410;28;20232;-71
2024/03/06 11:17:07;;;;;;;16.40;6.00;;;;;;;9.09;100.00;96429.25;5042198;28;20216;-72
2024/03/06 11:20:14;;;;;;;17.63;6.30;;;;;;;9.39;100.00;96423.34;5042220;28;20262;-71
2024/03/06 11:23:08;;;;;;;16.93;6.80;;;;;;;9.65;100.00;96429.22;5041600;28;20289;-71
2024/03/06 11:26:04;;;;;;;15.90;6.27;;;;;;;9.29;100.00;96425.31;5041291;28;20212;-71